WMKJ/JHB METAR and TAF weather

Enter ICAO airport designator
Station Type Date Time Source
WMKJ METAR 2020/11/28 20:00 UTC NOAA

WMKJ 282000Z VRB01KT 9999 FEW022 25/23 Q1009


Station Type Date Time Source
WMKJ Decoded METAR 2020/11/28 20:00 UTC NOAA

Johore Bharu / Senai, Malaysia (WMKJ) 01-38N 103-40E 40M
Nov 28, 2020 - 03:00 PM EST / 2020.11.28 2000 UTC
Wind: Variable at 1 MPH (1 KT):0
Visibility: greater than 7 mile(s):0
Sky conditions: mostly clear
Temperature: 77 F (25 C)
Dew Point: 73 F (23 C)
Relative Humidity: 88%
Pressure (altimeter): 29.80 in. Hg (1009 hPa)
ob: WMKJ 282000Z VRB01KT 9999 FEW022 25/23 Q1009
cycle: 20

Station Type Date Time Source
WMKJ TAF 2020/11/28 18:15 UTC NOAA

TAF TAF WMKJ 281700Z 2818/2918 VRB02KT 9999 FEW018 PROB30
TEMPO 2820/2900 4000 TSRA FEW010 FEW016CB BKN020 PROB30
TEMPO 2906/2910 5000 TSRA FEW017CB SCT018

Example: see airport list